sensor_id;sensor_type;location;lat;lon;timestamp;pressure;altitude;pressure_sealevel;temperature;humidity
4836;BME280;66719;51.226;6.902;2023-04-06T00:00:08;101043.53;;;3.32;100.00
4836;BME280;66719;51.226;6.902;2023-04-06T00:02:36;101052.13;;;3.31;100.00
4836;BME280;66719;51.226;6.902;2023-04-06T00:05:03;101045.03;;;3.19;100.00
4836;BME280;66719;51.226;6.902;2023-04-06T00:07:29;101048.59;;;3.26;100.00
4836;BME280;66719;51.226;6.902;2023-04-06T00:09:56;101045.13;;;3.25;100.00
4836;BME280;66719;51.226;6.902;2023-04-06T00:12:23;101044.31;;;3.29;100.00
4836;BME280;66719;51.226;6.902;2023-04-06T00:14:49;101038.34;;;3.32;100.00
4836;BME280;66719;51.226;6.902;2023-04-06T00:17:17;101044.38;;;3.31;100.00
4836;BME280;66719;51.226;6.902;2023-04-06T00:19:44;101037.50;;;3.33;100.00
4836;BME280;66719;51.226;6.902;2023-04-06T00:22:10;101033.16;;;3.30;100.00
4836;BME280;66719;51.226;6.902;2023-04-06T00:24:37;101039.72;;;3.11;100.00
4836;BME280;66719;51.226;6.902;2023-04-06T00:27:03;101034.34;;;2.99;100.00
4836;BME280;66719;51.226;6.902;2023-04-06T00:29:30;101030.59;;;2.80;100.00
4836;BME280;66719;51.226;6.902;2023-04-06T00:31:57;101032.34;;;2.83;100.00
4836;BME280;66719;51.226;6.902;2023-04-06T00:34:24;101030.63;;;2.83;100.00
4836;BME280;66719;51.226;6.902;2023-04-06T00:36:50;101033.88;;;2.72;100.00
4836;BME280;66719;51.226;6.902;2023-04-06T00:39:17;101027.91;;;2.76;100.00
4836;BME280;66719;51.226;6.902;2023-04-06T00:41:49;101025.34;;;2.77;100.00
4836;BME280;66719;51.226;6.902;2023-04-06T00:44:17;101028.03;;;2.82;100.00
4836;BME280;66719;51.226;6.902;2023-04-06T00:46:43;101025.44;;;2.82;100.00
4836;BME280;66719;51.226;6.902;2023-04-06T00:49:10;101019.47;;;2.86;100.00
4836;BME280;66719;51.226;6.902;2023-04-06T00:51:37;101014.38;;;2.91;100.00
4836;BME280;66719;51.226;6.902;2023-04-06T00:54:04;101012.56;;;2.85;100.00
4836;BME280;66719;51.226;6.902;2023-04-06T00:56:31;101005.59;;;2.79;100.00
4836;BME280;66719;51.226;6.902;2023-04-06T00:58:58;101012.56;;;2.85;100.00
4836;BME280;66719;51.226;6.902;2023-04-06T01:01:25;101009.88;;;2.79;100.00
4836;BME280;66719;51.226;6.902;2023-04-06T01:03:52;101004.44;;;2.64;100.00
4836;BME280;66719;51.226;6.902;2023-04-06T01:06:19;101006.16;;;2.63;100.00
4836;BME280;66719;51.226;6.902;2023-04-06T01:08:45;101002.56;;;2.57;100.00
4836;BME280;66719;51.226;6.902;2023-04-06T01:11:12;100993.13;;;2.59;100.00
4836;BME280;66719;51.226;6.902;2023-04-06T01:13:38;100989.78;;;2.63;100.00
4836;BME280;66719;51.226;6.902;2023-04-06T01:16:05;100991.56;;;2.68;100.00
4836;BME280;66719;51.226;6.902;2023-04-06T01:18:32;100988.13;;;2.68;100.00
4836;BME280;66719;51.226;6.902;2023-04-06T01:20:58;100979.28;;;2.53;100.00
4836;BME280;66719;51.226;6.902;2023-04-06T01:23:25;100980.13;;;2.52;100.00
4836;BME280;66719;51.226;6.902;2023-04-06T01:25:52;100977.53;;;2.52;100.00
4836;BME280;66719;51.226;6.902;2023-04-06T01:28:19;100975.44;;;2.33;100.00
4836;BME280;66719;51.226;6.902;2023-04-06T01:30:45;100973.53;;;2.23;100.00
4836;BME280;66719;51.226;6.902;2023-04-06T01:33:12;100969.19;;;2.22;100.00
4836;BME280;66719;51.226;6.902;2023-04-06T01:35:39;100969.06;;;2.16;100.00
4836;BME280;66719;51.226;6.902;2023-04-06T01:38:05;100971.63;;;2.14;100.00
4836;BME280;66719;51.226;6.902;2023-04-06T01:40:32;100971.72;;;2.19;100.00
4836;BME280;66719;51.226;6.902;2023-04-06T01:42:59;100967.34;;;2.16;100.00
4836;BME280;66719;51.226;6.902;2023-04-06T01:45:25;100973.47;;;2.20;100.00
4836;BME280;66719;51.226;6.902;2023-04-06T01:47:52;100964.69;;;2.12;100.00
4836;BME280;66719;51.226;6.902;2023-04-06T01:50:18;100962.09;;;2.10;100.00
4836;BME280;66719;51.226;6.902;2023-04-06T01:52:46;100966.38;;;2.10;100.00
4836;BME280;66719;51.226;6.902;2023-04-06T01:55:12;100972.44;;;2.10;100.00
4836;BME280;66719;51.226;6.902;2023-04-06T01:57:39;100958.47;;;2.01;100.00
4836;BME280;66719;51.226;6.902;2023-04-06T02:00:06;100961.91;;;2.01;100.00
4836;BME280;66719;51.226;6.902;2023-04-06T02:02:33;100957.53;;;1.98;100.00
4836;BME280;66719;51.226;6.902;2023-04-06T02:04:59;100961.97;;;2.04;100.00
4836;BME280;66719;51.226;6.902;2023-04-06T02:07:26;100956.84;;;2.07;100.00
4836;BME280;66719;51.226;6.902;2023-04-06T02:09:54;100953.25;;;1.99;100.00
4836;BME280;66719;51.226;6.902;2023-04-06T02:12:21;100957.66;;;2.03;100.00
4836;BME280;66719;51.226;6.902;2023-04-06T02:14:48;100948.22;;;2.05;100.00
4836;BME280;66719;51.226;6.902;2023-04-06T02:17:15;100956.91;;;2.09;100.00
4836;BME280;66719;51.226;6.902;2023-04-06T02:19:41;100947.47;;;2.11;100.00
4836;BME280;66719;51.226;6.902;2023-04-06T02:22:09;100951.69;;;2.07;100.00
4836;BME280;66719;51.226;6.902;2023-04-06T02:24:35;100955.25;;;2.12;100.00
4836;BME280;66719;51.226;6.902;2023-04-06T02:27:02;100950.91;;;2.11;100.00
4836;BME280;66719;51.226;6.902;2023-04-06T02:29:29;100953.41;;;2.07;100.00
4836;BME280;66719;51.226;6.902;2023-04-06T02:31:56;100954.31;;;2.09;100.00
4836;BME280;66719;51.226;6.902;2023-04-06T02:34:22;100949.78;;;1.98;100.00
4836;BME280;66719;51.226;6.902;2023-04-06T02:36:49;100948.81;;;1.92;100.00
4836;BME280;66719;51.226;6.902;2023-04-06T02:39:17;100945.16;;;1.82;100.00
4836;BME280;66719;51.226;6.902;2023-04-06T02:41:43;100940.06;;;1.84;100.00
4836;BME280;66719;51.226;6.902;2023-04-06T02:44:10;100934.91;;;1.85;100.00
4836;BME280;66719;51.226;6.902;2023-04-06T02:46:37;100925.34;;;1.80;100.00
4836;BME280;66719;51.226;6.902;2023-04-06T02:49:03;100936.50;;;1.79;100.00
4836;BME280;66719;51.226;6.902;2023-04-06T02:51:30;100932.91;;;1.72;100.00
4836;BME280;66719;51.226;6.902;2023-04-06T02:53:57;100938.88;;;1.69;100.00
4836;BME280;66719;51.226;6.902;2023-04-06T02:56:23;100932.91;;;1.72;100.00
4836;BME280;66719;51.226;6.902;2023-04-06T02:58:51;100932.81;;;1.66;100.00
4836;BME280;66719;51.226;6.902;2023-04-06T03:01:17;100935.28;;;1.61;100.00
4836;BME280;66719;51.226;6.902;2023-04-06T03:03:44;100926.56;;;1.56;100.00
4836;BME280;66719;51.226;6.902;2023-04-06T03:06:11;100930.13;;;1.61;100.00
4836;BME280;66719;51.226;6.902;2023-04-06T03:08:37;100934.47;;;1.64;100.00
4836;BME280;66719;51.226;6.902;2023-04-06T03:11:04;100930.41;;;1.75;100.00
4836;BME280;66719;51.226;6.902;2023-04-06T03:13:30;100932.03;;;1.72;100.00
4836;BME280;66719;51.226;6.902;2023-04-06T03:15:57;100933.69;;;1.68;100.00
4836;BME280;66719;51.226;6.902;2023-04-06T03:18:24;100930.16;;;1.63;100.00
4836;BME280;66719;51.226;6.902;2023-04-06T03:20:51;100934.53;;;1.65;100.00
4836;BME280;66719;51.226;6.902;2023-04-06T03:23:20;100929.38;;;1.67;100.00
4836;BME280;66719;51.226;6.902;2023-04-06T03:25:47;100931.97;;;1.67;100.00
4836;BME280;66719;51.226;6.902;2023-04-06T03:28:14;100920.59;;;1.57;100.00
4836;BME280;66719;51.226;6.902;2023-04-06T03:30:40;100924.66;;;1.48;100.00
4836;BME280;66719;51.226;6.902;2023-04-06T03:33:07;100927.19;;;1.46;100.00
4836;BME280;66719;51.226;6.902;2023-04-06T03:35:33;100931.47;;;1.44;100.00
4836;BME280;66719;51.226;6.902;2023-04-06T03:38:00;100929.47;;;1.31;100.00
4836;BME280;66719;51.226;6.902;2023-04-06T03:40:27;100923.56;;;1.36;100.00
4836;BME280;66719;51.226;6.902;2023-04-06T03:42:53;100922.84;;;1.44;100.00
4836;BME280;66719;51.226;6.902;2023-04-06T03:45:20;100930.75;;;1.50;100.00
4836;BME280;66719;51.226;6.902;2023-04-06T03:47:46;100931.59;;;1.50;100.00
4836;BME280;66719;51.226;6.902;2023-04-06T03:50:13;100926.25;;;1.41;100.00
4836;BME280;66719;51.226;6.902;2023-04-06T03:52:39;100922.88;;;1.45;100.00
4836;BME280;66719;51.226;6.902;2023-04-06T03:55:07;100928.84;;;1.41;100.00
4836;BME280;66719;51.226;6.902;2023-04-06T03:57:33;100923.69;;;1.41;100.00
4836;BME280;66719;51.226;6.902;2023-04-06T04:00:00;100927.84;;;1.36;100.00
4836;BME280;66719;51.226;6.902;2023-04-06T04:02:26;100927.78;;;1.33;100.00
4836;BME280;66719;51.226;6.902;2023-04-06T04:04:53;100921.81;;;1.35;100.00
4836;BME280;66719;51.226;6.902;2023-04-06T04:07:20;100918.44;;;1.38;100.00
4836;BME280;66719;51.226;6.902;2023-04-06T04:09:46;100925.22;;;1.33;100.00
4836;BME280;66719;51.226;6.902;2023-04-06T04:12:13;100932.09;;;1.32;100.00
4836;BME280;66719;51.226;6.902;2023-04-06T04:14:40;100920.09;;;1.34;100.00
4836;BME280;66719;51.226;6.902;2023-04-06T04:17:07;100927.13;;;1.41;100.00
4836;BME280;66719;51.226;6.902;2023-04-06T04:19:33;100923.34;;;1.27;100.00
4836;BME280;66719;51.226;6.902;2023-04-06T04:22:00;100925.72;;;1.18;100.00
4836;BME280;66719;51.226;6.902;2023-04-06T04:24:26;100924.13;;;1.23;100.00
4836;BME280;66719;51.226;6.902;2023-04-06T04:26:53;100929.31;;;1.23;100.00
4836;BME280;66719;51.226;6.902;2023-04-06T04:29:19;100923.22;;;1.21;100.00
4836;BME280;66719;51.226;6.902;2023-04-06T04:31:47;100921.47;;;1.20;100.00
4836;BME280;66719;51.226;6.902;2023-04-06T04:34:14;100925.03;;;1.25;100.00
4836;BME280;66719;51.226;6.902;2023-04-06T04:36:41;100924.19;;;1.26;100.00
4836;BME280;66719;51.226;6.902;2023-04-06T04:39:09;100932.53;;;1.15;100.00
4836;BME280;66719;51.226;6.902;2023-04-06T04:41:36;100927.19;;;1.07;100.00
4836;BME280;66719;51.226;6.902;2023-04-06T04:44:03;100928.97;;;1.09;100.00
4836;BME280;66719;51.226;6.902;2023-04-06T04:46:29;100923.97;;;1.16;100.00
4836;BME280;66719;51.226;6.902;2023-04-06T04:48:56;100929.13;;;1.16;100.00
4836;BME280;66719;51.226;6.902;2023-04-06T04:51:22;100927.44;;;1.18;100.00
4836;BME280;66719;51.226;6.902;2023-04-06T04:53:50;100917.78;;;1.09;100.00
4836;BME280;66719;51.226;6.902;2023-04-06T04:56:17;100923.16;;;1.18;100.00
4836;BME280;66719;51.226;6.902;2023-04-06T04:58:43;100922.44;;;1.24;100.00
4836;BME280;66719;51.226;6.902;2023-04-06T05:01:10;100920.72;;;1.24;100.00
4836;BME280;66719;51.226;6.902;2023-04-06T05:03:37;100922.41;;;1.22;100.00
4836;BME280;66719;51.226;6.902;2023-04-06T05:06:05;100922.41;;;1.22;100.00
4836;BME280;66719;51.226;6.902;2023-04-06T05:08:33;100924.16;;;1.25;100.00
4836;BME280;66719;51.226;6.902;2023-04-06T05:10:59;100915.56;;;1.24;100.00
4836;BME280;66719;51.226;6.902;2023-04-06T05:13:26;100923.06;;;1.13;100.00
4836;BME280;66719;51.226;6.902;2023-04-06T05:15:52;100919.31;;;1.01;100.00
4836;BME280;66719;51.226;6.902;2023-04-06T05:18:19;100932.22;;;1.01;100.00
4836;BME280;66719;51.226;6.902;2023-04-06T05:20:46;100921.72;;;0.93;100.00
4836;BME280;66719;51.226;6.902;2023-04-06T05:23:13;100925.19;;;0.95;100.00
4836;BME280;66719;51.226;6.902;2023-04-06T05:25:40;100931.19;;;0.94;100.00
4836;BME280;66719;51.226;6.902;2023-04-06T05:28:06;100928.97;;;1.09;100.00
4836;BME280;66719;51.226;6.902;2023-04-06T05:30:33;100923.09;;;1.15;100.00
4836;BME280;66719;51.226;6.902;2023-04-06T05:33:02;100930.66;;;1.07;100.00
4836;BME280;66719;51.226;6.902;2023-04-06T05:35:28;100932.56;;;1.16;100.00
4836;BME280;66719;51.226;6.902;2023-04-06T05:37:55;100930.13;;;1.22;100.00
4836;BME280;66719;51.226;6.902;2023-04-06T05:40:21;100926.72;;;1.23;100.00
4836;BME280;66719;51.226;6.902;2023-04-06T05:42:48;100926.56;;;1.17;100.00
4836;BME280;66719;51.226;6.902;2023-04-06T05:45:15;100925.09;;;1.28;100.00
4836;BME280;66719;51.226;6.902;2023-04-06T05:47:45;100921.81;;;1.35;100.00
4836;BME280;66719;51.226;6.902;2023-04-06T05:50:13;100927.88;;;1.37;100.00
4836;BME280;66719;51.226;6.902;2023-04-06T05:52:40;100934.84;;;1.40;100.00
4836;BME280;66719;51.226;6.902;2023-04-06T05:55:10;100932.25;;;1.40;100.00
4836;BME280;66719;51.226;6.902;2023-04-06T05:57:37;100930.59;;;1.44;100.00
4836;BME280;66719;51.226;6.902;2023-04-06T06:00:05;100935.94;;;1.53;100.00
4836;BME280;66719;51.226;6.902;2023-04-06T06:02:33;100935.28;;;1.61;100.00
4836;BME280;66719;51.226;6.902;2023-04-06T06:05:01;100930.31;;;1.70;100.00
4836;BME280;66719;51.226;6.902;2023-04-06T06:07:27;100934.72;;;1.76;100.00
4836;BME280;66719;51.226;6.902;2023-04-06T06:09:57;100938.34;;;1.84;100.00
4836;BME280;66719;51.226;6.902;2023-04-06T06:12:24;100924.72;;;1.91;100.00
4836;BME280;66719;51.226;6.902;2023-04-06T06:14:51;100926.63;;;2.02;100.00
4836;BME280;66719;51.226;6.902;2023-04-06T06:17:17;100928.53;;;2.10;100.00
4836;BME280;66719;51.226;6.902;2023-04-06T06:19:44;100925.25;;;2.19;100.00
4836;BME280;66719;51.226;6.902;2023-04-06T06:22:11;100922.00;;;2.29;100.00
4836;BME280;66719;51.226;6.902;2023-04-06T06:24:37;100917.84;;;2.37;100.00
4836;BME280;66719;51.226;6.902;2023-04-06T06:27:04;100920.56;;;2.46;100.00
4836;BME280;66719;51.226;6.902;2023-04-06T06:29:30;100916.41;;;2.54;100.00
4836;BME280;66719;51.226;6.902;2023-04-06T06:31:57;100916.56;;;2.64;100.00
4836;BME280;66719;51.226;6.902;2023-04-06T06:34:23;100925.28;;;2.70;100.00
4836;BME280;66719;51.226;6.902;2023-04-06T06:36:50;100918.53;;;2.78;100.00
4836;BME280;66719;51.226;6.902;2023-04-06T06:39:18;100924.63;;;2.83;100.00
4836;BME280;66719;51.226;6.902;2023-04-06T06:41:44;100924.88;;;2.97;100.00
4836;BME280;66719;51.226;6.902;2023-04-06T06:44:11;100923.28;;;3.05;100.00
4836;BME280;66719;51.226;6.902;2023-04-06T06:46:37;100926.78;;;3.12;100.00
4836;BME280;66719;51.226;6.902;2023-04-06T06:49:04;100930.38;;;3.20;100.00
4836;BME280;66719;51.226;6.902;2023-04-06T06:51:30;100933.94;;;3.30;100.00
4836;BME280;66719;51.226;6.902;2023-04-06T06:53:57;100928.16;;;3.46;100.00
4836;BME280;66719;51.226;6.902;2023-04-06T06:56:23;100929.22;;;3.60;100.00
4836;BME280;66719;51.226;6.902;2023-04-06T06:58:51;100927.69;;;3.75;98.44
4836;BME280;66719;51.226;6.902;2023-04-06T07:01:18;100929.47;;;3.82;95.79
4836;BME280;66719;51.226;6.902;2023-04-06T07:03:45;100928.66;;;3.84;94.45
4836;BME280;66719;51.226;6.902;2023-04-06T07:06:11;100922.66;;;3.90;94.15
4836;BME280;66719;51.226;6.902;2023-04-06T07:08:38;100915.81;;;3.92;94.84
4836;BME280;66719;51.226;6.902;2023-04-06T07:11:05;100915.84;;;3.98;94.88
4836;BME280;66719;51.226;6.902;2023-04-06T07:13:31;100912.56;;;4.14;92.06
4836;BME280;66719;51.226;6.902;2023-04-06T07:15:58;100911.81;;;4.24;90.14
4836;BME280;66719;51.226;6.902;2023-04-06T07:18:25;100911.78;;;4.21;90.47
4836;BME280;66719;51.226;6.902;2023-04-06T07:20:51;100908.44;;;4.30;89.79
4836;BME280;66719;51.226;6.902;2023-04-06T07:23:18;100904.19;;;4.37;89.44
4836;BME280;66719;51.226;6.902;2023-04-06T07:25:45;100904.19;;;4.38;90.04
4836;BME280;66719;51.226;6.902;2023-04-06T07:28:11;100904.25;;;4.44;90.99
4836;BME280;66719;51.226;6.902;2023-04-06T07:30:38;100913.81;;;4.51;90.55
4836;BME280;66719;51.226;6.902;2023-04-06T07:33:05;100911.25;;;4.53;91.63
4836;BME280;66719;51.226;6.902;2023-04-06T07:35:33;100914.81;;;4.69;88.71
4836;BME280;66719;51.226;6.902;2023-04-06T07:38:01;100915.00;;;4.89;87.73
4836;BME280;66719;51.226;6.902;2023-04-06T07:40:27;100904.75;;;5.04;86.59
4836;BME280;66719;51.226;6.902;2023-04-06T07:42:54;100901.34;;;5.14;86.04
4836;BME280;66719;51.226;6.902;2023-04-06T07:45:23;100899.63;;;5.15;85.05
4836;BME280;66719;51.226;6.902;2023-04-06T07:47:49;100901.41;;;5.29;85.54
4836;BME280;66719;51.226;6.902;2023-04-06T07:50:16;100897.13;;;5.34;84.72
4836;BME280;66719;51.226;6.902;2023-04-06T07:52:43;100895.41;;;5.36;82.18
4836;BME280;66719;51.226;6.902;2023-04-06T07:55:09;100897.13;;;5.37;82.19
4836;BME280;66719;51.226;6.902;2023-04-06T07:57:36;100897.19;;;5.45;81.36
4836;BME280;66719;51.226;6.902;2023-04-06T08:00:03;100894.63;;;5.56;81.09
4836;BME280;66719;51.226;6.902;2023-04-06T08:02:33;100891.22;;;5.67;81.46
4836;BME280;66719;51.226;6.902;2023-04-06T08:05:00;100889.53;;;5.76;82.43
4836;BME280;66719;51.226;6.902;2023-04-06T08:07:27;100888.66;;;5.77;81.77
4836;BME280;66719;51.226;6.902;2023-04-06T08:09:53;100891.34;;;5.93;81.29
4836;BME280;66719;51.226;6.902;2023-04-06T08:12:20;100890.50;;;5.99;80.99
4836;BME280;66719;51.226;6.902;2023-04-06T08:14:47;100882.72;;;6.02;80.60
4836;BME280;66719;51.226;6.902;2023-04-06T08:17:14;100888.78;;;6.06;80.84
4836;BME280;66719;51.226;6.902;2023-04-06T08:19:43;100884.44;;;6.05;80.03
4836;BME280;66719;51.226;6.902;2023-04-06T08:22:11;100887.94;;;6.14;80.30
4836;BME280;66719;51.226;6.902;2023-04-06T08:24:37;100879.28;;;6.24;79.98
4836;BME280;66719;51.226;6.902;2023-04-06T08:27:04;100880.16;;;6.22;80.07
4836;BME280;66719;51.226;6.902;2023-04-06T08:29:30;100879.31;;;6.32;78.71
4836;BME280;66719;51.226;6.902;2023-04-06T08:31:57;100872.34;;;6.25;80.06
4836;BME280;66719;51.226;6.902;2023-04-06T08:34:24;100879.28;;;6.23;79.69
4836;BME280;66719;51.226;6.902;2023-04-06T08:36:51;100881.91;;;6.34;79.18
4836;BME280;66719;51.226;6.902;2023-04-06T08:39:17;100878.47;;;6.45;78.38
4836;BME280;66719;51.226;6.902;2023-04-06T08:41:52;100881.94;;;6.55;77.68
4836;BME280;66719;51.226;6.902;2023-04-06T08:44:18;100881.91;;;6.50;77.91
4836;BME280;66719;51.226;6.902;2023-04-06T08:46:45;100874.97;;;6.59;78.89
4836;BME280;66719;51.226;6.902;2023-04-06T08:49:14;100875.00;;;6.72;78.43
4836;BME280;66719;51.226;6.902;2023-04-06T08:51:42;100870.66;;;6.84;77.04
4836;BME280;66719;51.226;6.902;2023-04-06T08:54:09;100874.97;;;6.92;75.68
4836;BME280;66719;51.226;6.902;2023-04-06T08:56:38;100870.63;;;7.00;74.61
4836;BME280;66719;51.226;6.902;2023-04-06T08:59:06;100870.63;;;7.02;74.99
4836;BME280;66719;51.226;6.902;2023-04-06T09:01:33;100870.59;;;7.11;74.43
4836;BME280;66719;51.226;6.902;2023-04-06T09:04:06;100871.44;;;7.24;73.41
4836;BME280;66719;51.226;6.902;2023-04-06T09:06:36;100869.72;;;7.23;75.29
4836;BME280;66719;51.226;6.902;2023-04-06T09:09:03;100870.50;;;7.51;74.50
4836;BME280;66719;51.226;6.902;2023-04-06T09:11:50;100873.94;;;7.54;73.27
4836;BME280;66719;51.226;6.902;2023-04-06T09:14:32;100870.44;;;7.64;71.41
4836;BME280;66719;51.226;6.902;2023-04-06T09:16:59;100867.81;;;7.69;71.16
4836;BME280;66719;51.226;6.902;2023-04-06T09:19:25;100868.63;;;7.79;71.91
4836;BME280;66719;51.226;6.902;2023-04-06T09:22:05;100862.50;;;7.89;71.91
4836;BME280;66719;51.226;6.902;2023-04-06T09:24:51;100862.44;;;8.00;71.18
4836;BME280;66719;51.226;6.902;2023-04-06T09:27:33;100861.53;;;8.04;70.10
4836;BME280;66719;51.226;6.902;2023-04-06T09:30:11;100863.13;;;8.29;70.76
4836;BME280;66719;51.226;6.902;2023-04-06T09:32:49;100857.91;;;8.28;70.11
4836;BME280;66719;51.226;6.902;2023-04-06T09:35:18;100860.50;;;8.29;69.93
4836;BME280;66719;51.226;6.902;2023-04-06T09:37:47;100852.69;;;8.31;70.03
4836;BME280;66719;51.226;6.902;2023-04-06T09:40:15;100854.38;;;8.44;70.11
4836;BME280;66719;51.226;6.902;2023-04-06T09:42:48;100846.50;;;8.47;69.95
4836;BME280;66719;51.226;6.902;2023-04-06T09:45:16;100846.41;;;8.56;68.89
4836;BME280;66719;51.226;6.902;2023-04-06T09:47:44;100844.59;;;8.69;70.20
4836;BME280;66719;51.226;6.902;2023-04-06T09:50:12;100841.03;;;8.74;70.61
4836;BME280;66719;51.226;6.902;2023-04-06T09:52:47;100843.63;;;8.76;70.67
4836;BME280;66719;51.226;6.902;2023-04-06T09:55:35;100840.09;;;8.82;68.62
4836;BME280;66719;51.226;6.902;2023-04-06T09:58:05;100844.41;;;8.89;68.02
4836;BME280;66719;51.226;6.902;2023-04-06T10:00:42;100841.75;;;8.92;67.58
4836;BME280;66719;51.226;6.902;2023-04-06T10:03:21;100837.25;;;9.03;67.78
4836;BME280;66719;51.226;6.902;2023-04-06T10:06:05;100832.88;;;9.08;67.54
4836;BME280;66719;51.226;6.902;2023-04-06T10:08:33;100833.56;;;9.24;66.54
4836;BME280;66719;51.226;6.902;2023-04-06T10:11:01;100824.69;;;9.37;66.24
4836;BME280;66719;51.226;6.902;2023-04-06T10:13:28;100825.53;;;9.41;66.43
4836;BME280;66719;51.226;6.902;2023-04-06T10:15:55;100817.59;;;9.47;66.84
4836;BME280;66719;51.226;6.902;2023-04-06T10:18:21;100829.75;;;9.51;67.05
4836;BME280;66719;51.226;6.902;2023-04-06T10:23:24;100822.44;;;9.77;63.57
4836;BME280;66719;51.226;6.902;2023-04-06T10:25:54;100828.47;;;9.81;64.75
4836;BME280;66719;51.226;6.902;2023-04-06T10:28:21;100823.22;;;9.84;64.62
4836;BME280;66719;51.226;6.902;2023-04-06T10:30:48;100830.13;;;9.88;63.68
4836;BME280;66719;51.226;6.902;2023-04-06T10:33:19;100827.34;;;9.99;63.14
4836;BME280;66719;51.226;6.902;2023-04-06T10:35:46;100832.41;;;10.12;62.85
4836;BME280;66719;51.226;6.902;2023-04-06T10:38:13;100824.50;;;10.15;62.14
4836;BME280;66719;51.226;6.902;2023-04-06T10:40:42;100826.38;;;10.09;61.33
4836;BME280;66719;51.226;6.902;2023-04-06T10:43:22;100828.13;;;10.07;61.76
4836;BME280;66719;51.226;6.902;2023-04-06T10:45:57;100821.75;;;10.28;62.57
4836;BME280;66719;51.226;6.902;2023-04-06T10:48:24;100826.97;;;10.28;62.64
4836;BME280;66719;51.226;6.902;2023-04-06T10:50:52;100828.69;;;10.29;63.64
4836;BME280;66719;51.226;6.902;2023-04-06T10:53:26;100834.72;;;10.35;61.13
4836;BME280;66719;51.226;6.902;2023-04-06T10:55:57;100830.19;;;10.45;62.34
4836;BME280;66719;51.226;6.902;2023-04-06T10:58:25;100825.88;;;10.42;62.73
4836;BME280;66719;51.226;6.902;2023-04-06T11:00:53;100828.44;;;10.45;61.56
4836;BME280;66719;51.226;6.902;2023-04-06T11:03:20;100823.22;;;10.44;62.20
4836;BME280;66719;51.226;6.902;2023-04-06T11:05:50;100817.16;;;10.40;62.48
4836;BME280;66719;51.226;6.902;2023-04-06T11:10:50;100815.25;;;10.52;63.21
4836;BME280;66719;51.226;6.902;2023-04-06T11:13:16;100810.66;;;10.64;63.42
4836;BME280;66719;51.226;6.902;2023-04-06T11:15:43;100814.06;;;10.68;62.84
4836;BME280;66719;51.226;6.902;2023-04-06T11:18:10;100820.88;;;10.80;62.31
4836;BME280;66719;51.226;6.902;2023-04-06T11:20:37;100817.41;;;10.78;61.78
4836;BME280;66719;51.226;6.902;2023-04-06T11:23:04;100820.75;;;10.84;61.54
4836;BME280;66719;51.226;6.902;2023-04-06T11:25:31;100819.09;;;10.80;61.98
4836;BME280;66719;51.226;6.902;2023-04-06T11:27:58;100817.13;;;10.93;62.75
4836;BME280;66719;51.226;6.902;2023-04-06T11:30:25;100819.59;;;11.00;63.42
4836;BME280;66719;51.226;6.902;2023-04-06T11:32:52;100809.00;;;11.07;62.27
4836;BME280;66719;51.226;6.902;2023-04-06T11:35:26;100812.38;;;11.12;63.60
4836;BME280;66719;51.226;6.902;2023-04-06T11:37:53;100819.56;;;11.03;63.39
4836;BME280;66719;51.226;6.902;2023-04-06T11:40:23;100813.63;;;10.92;64.01
4836;BME280;66719;51.226;6.902;2023-04-06T11:42:55;100806.78;;;10.87;65.09
4836;BME280;66719;51.226;6.902;2023-04-06T11:45:22;100804.94;;;10.90;64.88
4836;BME280;66719;51.226;6.902;2023-04-06T11:48:00;100794.41;;;10.95;65.45
4836;BME280;66719;51.226;6.902;2023-04-06T11:50:32;100800.44;;;10.98;65.43
4836;BME280;66719;51.226;6.902;2023-04-06T11:53:01;100808.28;;;10.98;64.80
4836;BME280;66719;51.226;6.902;2023-04-06T11:55:28;100796.91;;;10.99;64.83
4836;BME280;66719;51.226;6.902;2023-04-06T11:57:58;100796.09;;;10.97;64.98
4836;BME280;66719;51.226;6.902;2023-04-06T12:00:25;100806.53;;;10.99;65.28
4836;BME280;66719;51.226;6.902;2023-04-06T12:02:52;100805.59;;;11.01;63.70
4836;BME280;66719;51.226;6.902;2023-04-06T12:05:19;100796.84;;;11.04;63.83
4836;BME280;66719;51.226;6.902;2023-04-06T12:07:45;100794.22;;;11.04;63.72
4836;BME280;66719;51.226;6.902;2023-04-06T12:10:12;100787.97;;;11.10;64.97
4836;BME280;66719;51.226;6.902;2023-04-06T12:12:39;100792.22;;;11.17;64.68
4836;BME280;66719;51.226;6.902;2023-04-06T12:15:06;100793.00;;;11.22;66.23
4836;BME280;66719;51.226;6.902;2023-04-06T12:17:33;100787.59;;;11.29;66.41
4836;BME280;66719;51.226;6.902;2023-04-06T12:19:59;100783.03;;;11.38;65.96
4836;BME280;66719;51.226;6.902;2023-04-06T12:22:39;100786.56;;;11.37;66.82
4836;BME280;66719;51.226;6.902;2023-04-06T12:25:06;100788.19;;;11.42;66.39
4836;BME280;66719;51.226;6.902;2023-04-06T12:27:35;100786.44;;;11.43;66.35
4836;BME280;66719;51.226;6.902;2023-04-06T12:30:02;100790.75;;;11.45;66.92
4836;BME280;66719;51.226;6.902;2023-04-06T12:32:29;100785.56;;;11.42;65.38
4836;BME280;66719;51.226;6.902;2023-04-06T12:34:55;100788.97;;;11.46;66.69
4836;BME280;66719;51.226;6.902;2023-04-06T12:37:22;100776.72;;;11.46;66.54
4836;BME280;66719;51.226;6.902;2023-04-06T12:39:48;100782.75;;;11.51;66.09
4836;BME280;66719;51.226;6.902;2023-04-06T12:42:15;100783.88;;;11.40;66.03
4836;BME280;66719;51.226;6.902;2023-04-06T12:44:42;100778.50;;;11.46;67.45
4836;BME280;66719;51.226;6.902;2023-04-06T12:47:09;100775.66;;;11.55;67.40
4836;BME280;66719;51.226;6.902;2023-04-06T12:49:37;100786.06;;;11.59;66.59
4836;BME280;66719;51.226;6.902;2023-04-06T12:52:03;100771.44;;;11.49;64.92
4836;BME280;66719;51.226;6.902;2023-04-06T12:54:30;100783.03;;;11.38;65.47
4836;BME280;66719;51.226;6.902;2023-04-06T12:56:57;100777.13;;;11.28;66.25
4836;BME280;66719;51.226;6.902;2023-04-06T12:59:24;100777.13;;;11.28;65.55
4836;BME280;66719;51.226;6.902;2023-04-06T13:01:51;100777.88;;;11.35;67.19
4836;BME280;66719;51.226;6.902;2023-04-06T13:04:19;100778.72;;;11.35;66.08
4836;BME280;66719;51.226;6.902;2023-04-06T13:06:45;100778.75;;;11.33;66.16
4836;BME280;66719;51.226;6.902;2023-04-06T13:09:12;100777.03;;;11.32;66.19